Laguepe — 9HAI9 — position and weather

sailwx.info

Track history (hours):
 
Tides and Currents Weather Stations Pressure Air Temp Water Temp Dewpoint Dewpoint Depression Visibility Wind Speed Wind Dir Waves Ship Positions

Laguepe

Last reported at 2017-Mar-25 09:08 UTC. Time now 2017-Mar-28 08:33 UTC.
Position N 43°24' E 004°55'.

Length 81 m; draft 3.2 m.

Type: Cargo ship. MMSI: 256681000.

Date/timePositionNaut miles runAvg speedWind from/ knotsBaromVisibWave heightAir tempDewpointWater temp
2017-Mar-25 09:08N 43°24' E 004°55'4 7.3
2017-Mar-25 08:33N 43°20' E 004°59'320 7.9
2017-Mar-23 16:07N 38°50' E 008°45'5 9.0
2017-Mar-23 15:32N 38°50' E 008°52'9 8.9
2017-Mar-23 14:32N 38°55' E 009°02'8 8.4
2017-Mar-23 13:33N 39°02' E 009°08'9 8.6
2017-Mar-23 12:33N 39°10' E 009°06'3 3.4
2017-Mar-23 11:31N 39°13' E 009°04'0 0.0
2017-Mar-23 10:31N 39°13' E 009°04'0 0.0
2017-Mar-23 09:31N 39°13' E 009°04'0 0.0
2017-Mar-23 08:31N 39°13' E 009°04'0 0.0
2017-Mar-23 07:31N 39°13' E 009°04'0 0.0
2017-Mar-23 06:31N 39°13' E 009°04'0 0.0
2017-Mar-23 05:31N 39°13' E 009°04'0 0.0
2017-Mar-23 04:31N 39°13' E 009°04'0 0.0
2017-Mar-23 03:31N 39°13' E 009°04'0 0.0
2017-Mar-23 02:31N 39°13' E 009°04'0 0.0
2017-Mar-23 01:31N 39°13' E 009°04'0 0.0
2017-Mar-23 00:31N 39°13' E 009°04'0 0.0
2017-Mar-22 23:31N 39°13' E 009°04'0 0.0
2017-Mar-22 22:31N 39°13' E 009°04'0 0.0
2017-Mar-22 21:31N 39°13' E 009°04'0 0.0
2017-Mar-22 20:31N 39°13' E 009°04'0 0.0
2017-Mar-22 19:31N 39°13' E 009°04'0 0.0
2017-Mar-22 18:31N 39°13' E 009°04'0 0.0
2017-Mar-22 17:31N 39°13' E 009°04'0 0.0
2017-Mar-22 16:31N 39°13' E 009°04'0 0.0
2017-Mar-22 15:31N 39°13' E 009°04'0 0.0
2017-Mar-22 14:31N 39°13' E 009°04'0 0.0
2017-Mar-22 13:31N 39°13' E 009°04'0 0.0
2017-Mar-22 12:31N 39°13' E 009°04'0 0.0
2017-Mar-22 11:31N 39°13' E 009°04'0 0.0
2017-Mar-22 10:31N 39°13' E 009°04'0 0.0
2017-Mar-22 09:31N 39°13' E 009°04'0 0.0
2017-Mar-22 08:31N 39°13' E 009°04'0 0.0
2017-Mar-22 07:22N 39°13' E 009°04'0 0.0
2017-Mar-22 06:31N 39°13' E 009°04'0 0.0
2017-Mar-22 05:31N 39°13' E 009°04'0 0.0
2017-Mar-22 04:31N 39°13' E 009°04'0 0.0
2017-Mar-22 03:31N 39°13' E 009°04'0 0.0
2017-Mar-22 02:31N 39°13' E 009°04'0 0.0
2017-Mar-22 01:32N 39°13' E 009°04'0 0.0
2017-Mar-22 00:33N 39°13' E 009°04'0 0.0
2017-Mar-21 23:33N 39°13' E 009°04'0 0.0
2017-Mar-21 22:33N 39°13' E 009°04'0 0.0
2017-Mar-21 21:33N 39°13' E 009°04'0 0.0
2017-Mar-21 20:33N 39°13' E 009°04'0 0.0
2017-Mar-21 19:32N 39°13' E 009°04'0 0.0
2017-Mar-21 18:32N 39°13' E 009°04'0 0.0
2017-Mar-21 17:33N 39°13' E 009°04'0 0.0
2017-Mar-21 16:33N 39°13' E 009°04'0 0.0
2017-Mar-21 15:33N 39°13' E 009°04'3 3.3
2017-Mar-21 14:33N 39°11' E 009°07'9 9.2
2017-Mar-21 13:33N 39°01' E 009°08'9 8.9
2017-Mar-21 12:32N 38°55' E 009°00'9 9.4
2017-Mar-21 11:32N 38°50' E 008°50'323 8.7
2017-Mar-19 22:29N 43°21' E 004°58'  
Track history (hours):
 
Tides and Currents Weather Stations Pressure Air Temp Water Temp Dewpoint Dewpoint Depression Visibility Wind Speed Wind Dir Waves Ship Positions

Laguepe

Last reported at 2017-Mar-25 09:08 UTC. Time now 2017-Mar-28 08:33 UTC.
Position N 43°24' E 004°55'.

Length 81 m; draft 3.2 m.

Type: Cargo ship. MMSI: 256681000.

Date/timePositionNaut miles runAvg speedWind from/ knotsBaromVisibWave heightAir tempDewpointWater temp
2017-Mar-25 09:08N 43°24' E 004°55'4 7.3
2017-Mar-25 08:33N 43°20' E 004°59'320 7.9
2017-Mar-23 16:07N 38°50' E 008°45'5 9.0
2017-Mar-23 15:32N 38°50' E 008°52'9 8.9
2017-Mar-23 14:32N 38°55' E 009°02'8 8.4
2017-Mar-23 13:33N 39°02' E 009°08'9 8.6
2017-Mar-23 12:33N 39°10' E 009°06'3 3.4
2017-Mar-23 11:31N 39°13' E 009°04'0 0.0
2017-Mar-23 10:31N 39°13' E 009°04'0 0.0
2017-Mar-23 09:31N 39°13' E 009°04'0 0.0
2017-Mar-23 08:31N 39°13' E 009°04'0 0.0
2017-Mar-23 07:31N 39°13' E 009°04'0 0.0
2017-Mar-23 06:31N 39°13' E 009°04'0 0.0
2017-Mar-23 05:31N 39°13' E 009°04'0 0.0
2017-Mar-23 04:31N 39°13' E 009°04'0 0.0
2017-Mar-23 03:31N 39°13' E 009°04'0 0.0
2017-Mar-23 02:31N 39°13' E 009°04'0 0.0
2017-Mar-23 01:31N 39°13' E 009°04'0 0.0
2017-Mar-23 00:31N 39°13' E 009°04'0 0.0
2017-Mar-22 23:31N 39°13' E 009°04'0 0.0
2017-Mar-22 22:31N 39°13' E 009°04'0 0.0
2017-Mar-22 21:31N 39°13' E 009°04'0 0.0
2017-Mar-22 20:31N 39°13' E 009°04'0 0.0
2017-Mar-22 19:31N 39°13' E 009°04'0 0.0
2017-Mar-22 18:31N 39°13' E 009°04'0 0.0
2017-Mar-22 17:31N 39°13' E 009°04'0 0.0
2017-Mar-22 16:31N 39°13' E 009°04'0 0.0
2017-Mar-22 15:31N 39°13' E 009°04'0 0.0
2017-Mar-22 14:31N 39°13' E 009°04'0 0.0
2017-Mar-22 13:31N 39°13' E 009°04'0 0.0
2017-Mar-22 12:31N 39°13' E 009°04'0 0.0
2017-Mar-22 11:31N 39°13' E 009°04'0 0.0
2017-Mar-22 10:31N 39°13' E 009°04'0 0.0
2017-Mar-22 09:31N 39°13' E 009°04'0 0.0
2017-Mar-22 08:31N 39°13' E 009°04'0 0.0
2017-Mar-22 07:22N 39°13' E 009°04'0 0.0
2017-Mar-22 06:31N 39°13' E 009°04'0 0.0
2017-Mar-22 05:31N 39°13' E 009°04'0 0.0
2017-Mar-22 04:31N 39°13' E 009°04'0 0.0
2017-Mar-22 03:31N 39°13' E 009°04'0 0.0
2017-Mar-22 02:31N 39°13' E 009°04'0 0.0
2017-Mar-22 01:32N 39°13' E 009°04'0 0.0
2017-Mar-22 00:33N 39°13' E 009°04'0 0.0
2017-Mar-21 23:33N 39°13' E 009°04'0 0.0
2017-Mar-21 22:33N 39°13' E 009°04'0 0.0
2017-Mar-21 21:33N 39°13' E 009°04'0 0.0
2017-Mar-21 20:33N 39°13' E 009°04'0 0.0
2017-Mar-21 19:32N 39°13' E 009°04'0 0.0
2017-Mar-21 18:32N 39°13' E 009°04'0 0.0
2017-Mar-21 17:33N 39°13' E 009°04'0 0.0
2017-Mar-21 16:33N 39°13' E 009°04'0 0.0
2017-Mar-21 15:33N 39°13' E 009°04'3 3.3
2017-Mar-21 14:33N 39°11' E 009°07'9 9.2
2017-Mar-21 13:33N 39°01' E 009°08'9 8.9
2017-Mar-21 12:32N 38°55' E 009°00'9 9.4
2017-Mar-21 11:32N 38°50' E 008°50'323 8.7
2017-Mar-19 22:29N 43°21' E 004°58'  

Dump ship's entire track history